Capitol Logistics 377




MBPV
Providenciales International Airport
Providenciales, TC
TJSJ
Luis Munoz Marin International Airport
San Juan, PR

Activity Log

Date Flight Route Aircraft Duration
09/22/2021 CPX377 GTK A555 HARDE IDAHO B752 1h 12m
04/14/2021 CPX3277 GTK A555 HARDE IDAHO RTE6 SJU SF34 1h 41m

Route Details

Aircraft Information
Group: Narrowbodies
Types: B738,B752
Route Data
Demand: V
Distance: 406nm
Duration: 1h 19m
Recm'd Route: GTK4 GTK Y587 HARDE BEANO3
Origin Wx: MBPV 260000Z 06010KT 9999 SCT012 26/20 Q1016
Dest. Wx: TJSJ 270456Z 11005KT 10SM FEW030 26/23 A3005 RMK AO2 SLP174 T02560228
Notes:

Financial History
Total Freight: 52,990lbs
Average Load: 26,495lbs/flt
Fuel Used: 9,507lbs
Avg. Fuel Used: 4,754lbs/flt
Fuel Expense: $3,788
Avg. Fuel Expense: $1,894
Avg. Fuel Cost: $0.52/lbs
Total Gross Income: $150,796
Pilot Pay: $408
Total Expenses: $29,096
Total Revenue: $117,317
Average Revenue: $75,398.12